createdAt,value
2022-08-17T00:00:44.163Z,97823.48
2022-08-17T00:01:51.889Z,97828.36
2022-08-17T00:03:05.389Z,97821.00
2022-08-17T00:04:13.830Z,97821.75
2022-08-17T00:05:24.886Z,97826.92
2022-08-17T00:06:33.493Z,97827.19
2022-08-17T00:07:41.968Z,97827.74
2022-08-17T00:08:54.354Z,97823.89
2022-08-17T00:10:02.096Z,97826.52
2022-08-17T00:11:12.495Z,97824.04
2022-08-17T00:12:42.870Z,97829.46
2022-08-17T00:13:52.158Z,97832.59
2022-08-17T00:15:05.325Z,97831.80
2022-08-17T00:16:56.156Z,97831.48
2022-08-17T00:18:01.458Z,97833.55
2022-08-17T00:19:11.533Z,97835.58
2022-08-17T00:20:20.813Z,97835.73
2022-08-17T00:22:33.039Z,97843.14
2022-08-17T00:23:07.781Z,97838.20
2022-08-17T00:24:15.209Z,97843.27
2022-08-17T00:25:22.300Z,97842.59
2022-08-17T00:26:34.590Z,97839.44
2022-08-17T00:27:51.897Z,97848.63
2022-08-17T00:29:02.039Z,97845.70
2022-08-17T00:30:10.162Z,97843.84
2022-08-17T00:31:17.553Z,97840.20
2022-08-17T00:33:22.894Z,97842.00
2022-08-17T00:33:52.490Z,97840.69
2022-08-17T00:34:59.561Z,97840.94
2022-08-17T00:36:10.704Z,97837.60
2022-08-17T00:37:18.059Z,97841.02
2022-08-17T00:38:25.384Z,97840.46
2022-08-17T00:39:32.371Z,97846.31
2022-08-17T00:40:50.274Z,97849.45
2022-08-17T00:41:58.926Z,97848.67
2022-08-17T00:43:20.686Z,97850.39
2022-08-17T00:44:30.347Z,97849.42
2022-08-17T00:45:38.892Z,97840.90
2022-08-17T00:46:46.174Z,97842.52
2022-08-17T00:47:53.112Z,97844.09
2022-08-17T00:49:01.813Z,97842.34
2022-08-17T00:50:11.744Z,97842.59
2022-08-17T00:51:26.119Z,97846.88
2022-08-17T00:52:39.293Z,97849.02
2022-08-17T00:53:50.762Z,97846.06
2022-08-17T00:54:59.292Z,97850.83
2022-08-17T00:56:08.471Z,97849.11
2022-08-17T00:57:25.843Z,97851.16
2022-08-17T00:58:36.224Z,97853.54
2022-08-17T00:59:55.996Z,97852.36
2022-08-17T01:01:10.664Z,97855.52
2022-08-17T01:02:17.609Z,97858.91
2022-08-17T01:03:29.087Z,97860.73
2022-08-17T01:04:36.088Z,97862.37
2022-08-17T01:05:43.347Z,97862.40
2022-08-17T01:06:52.365Z,97859.68
2022-08-17T01:08:00.092Z,97864.39
2022-08-17T01:09:07.247Z,97863.75
2022-08-17T01:10:59.824Z,97864.23
2022-08-17T01:11:42.693Z,97865.63
2022-08-17T01:12:50.905Z,97870.79
2022-08-17T01:13:58.451Z,97870.36
2022-08-17T01:15:06.692Z,97866.38
2022-08-17T01:16:28.393Z,97871.21
2022-08-17T01:17:35.687Z,97869.83
2022-08-17T01:18:43.608Z,97869.64
2022-08-17T01:19:50.865Z,97871.11
2022-08-17T01:20:59.268Z,97866.05
2022-08-17T01:22:17.458Z,97866.73
2022-08-17T01:23:25.784Z,97866.48
2022-08-17T01:24:33.790Z,97869.38
2022-08-17T01:25:41.640Z,97870.73
2022-08-17T01:26:48.578Z,97872.95
2022-08-17T01:27:56.170Z,97875.50
2022-08-17T01:29:03.775Z,97871.09
2022-08-17T01:30:57.852Z,97871.11
2022-08-17T01:31:47.344Z,97873.73
2022-08-17T01:32:54.744Z,97878.02
2022-08-17T01:34:03.223Z,97878.09
2022-08-17T01:35:10.731Z,97879.73
2022-08-17T01:36:20.920Z,97879.91
2022-08-17T01:37:35.922Z,97881.50
2022-08-17T01:38:43.458Z,97880.23
2022-08-17T01:39:56.457Z,97879.84
2022-08-17T01:41:05.941Z,97880.34
2022-08-17T01:42:42.180Z,97881.56
2022-08-17T01:43:57.583Z,97884.95
2022-08-17T01:45:24.314Z,97889.58
2022-08-17T01:46:34.635Z,97892.87
2022-08-17T01:47:43.204Z,97895.13
2022-08-17T01:48:50.430Z,97896.48
2022-08-17T01:49:58.003Z,97899.92
2022-08-17T01:51:07.170Z,97900.92
2022-08-17T01:52:14.296Z,97902.29
2022-08-17T01:53:42.502Z,97904.27
2022-08-17T01:54:49.495Z,97905.92
2022-08-17T01:56:00.774Z,97908.88
2022-08-17T01:57:08.449Z,97912.08
2022-08-17T01:58:15.816Z,97908.80
2022-08-17T01:59:23.097Z,97909.51
2022-08-17T02:00:59.485Z,97909.47
2022-08-17T02:01:58.028Z,97914.26
2022-08-17T02:03:05.319Z,97916.87
2022-08-17T02:04:12.932Z,97918.03
2022-08-17T02:05:19.961Z,97918.63
2022-08-17T02:06:28.336Z,97917.15
2022-08-17T02:07:48.007Z,97919.27
2022-08-17T02:09:06.539Z,97919.64
2022-08-17T02:10:24.459Z,97924.11
2022-08-17T02:11:41.582Z,97924.45
2022-08-17T02:12:50.268Z,97925.37
2022-08-17T02:14:02.485Z,97923.71
2022-08-17T02:15:13.647Z,97923.98
2022-08-17T02:16:23.828Z,97924.20
2022-08-17T02:17:30.982Z,97928.08
2022-08-17T02:18:39.600Z,97930.45
2022-08-17T02:19:46.840Z,97929.13
2022-08-17T02:20:54.339Z,97936.14
2022-08-17T02:22:01.767Z,97939.23
2022-08-17T02:23:10.285Z,97943.90
2022-08-17T02:24:59.510Z,97947.25
2022-08-17T02:25:50.168Z,97950.02
2022-08-17T02:26:57.469Z,97949.67
2022-08-17T02:28:06.178Z,97957.18
2022-08-17T02:29:13.381Z,97955.67
2022-08-17T02:31:00.667Z,97961.52
2022-08-17T02:31:48.056Z,97963.14
2022-08-17T02:32:55.779Z,97967.55
2022-08-17T02:34:03.888Z,97968.18
2022-08-17T02:35:12.002Z,97971.23
2022-08-17T02:36:21.149Z,97969.60
2022-08-17T02:37:31.476Z,97974.26
2022-08-17T02:38:39.642Z,97974.75
2022-08-17T02:39:47.416Z,97979.35
2022-08-17T02:40:54.652Z,97977.14
2022-08-17T02:42:05.582Z,97981.83
2022-08-17T02:43:12.830Z,97982.93
2022-08-17T02:44:39.010Z,97984.69
2022-08-17T02:45:47.787Z,97989.77
2022-08-17T02:46:54.885Z,97994.54
2022-08-17T02:48:02.068Z,97996.92
2022-08-17T02:49:09.953Z,98000.37
2022-08-17T02:50:18.342Z,98000.96
2022-08-17T02:51:25.865Z,98003.77
2022-08-17T02:53:01.965Z,98010.30
2022-08-17T02:54:41.608Z,98015.05
2022-08-17T02:55:37.592Z,98016.71
2022-08-17T02:56:45.032Z,98019.09
2022-08-17T02:57:52.568Z,98021.09
2022-08-17T02:59:00.260Z,98025.58
2022-08-17T03:00:11.861Z,98026.35
2022-08-17T03:01:19.000Z,98031.61
2022-08-17T03:02:25.867Z,98032.16
2022-08-17T03:03:33.122Z,98033.77
2022-08-17T03:04:40.391Z,98031.97
2022-08-17T03:05:49.831Z,98037.49
2022-08-17T03:06:58.956Z,98040.73
2022-08-17T03:08:11.677Z,98041.52
2022-08-17T03:09:21.095Z,98044.84
2022-08-17T03:10:28.096Z,98051.88
2022-08-17T03:11:35.301Z,98058.21
2022-08-17T03:12:43.455Z,98058.70
2022-08-17T03:13:50.666Z,98059.35
2022-08-17T03:14:57.627Z,98064.99
2022-08-17T03:16:04.875Z,98069.02
2022-08-17T03:17:17.161Z,98074.27
2022-08-17T03:18:26.980Z,98071.79
2022-08-17T03:19:34.470Z,98074.64
2022-08-17T03:20:47.563Z,98078.77
2022-08-17T03:21:55.550Z,98080.03
2022-08-17T03:23:03.299Z,98080.69
2022-08-17T03:24:10.892Z,98081.08
2022-08-17T03:25:20.372Z,98083.93
2022-08-17T03:26:30.500Z,98086.17
2022-08-17T03:27:38.190Z,98085.41
2022-08-17T03:28:50.099Z,98087.81
2022-08-17T03:29:57.413Z,98089.56
2022-08-17T03:31:04.627Z,98088.14
2022-08-17T03:32:15.617Z,98086.58
2022-08-17T03:33:23.033Z,98090.83
2022-08-17T03:34:30.060Z,98093.29
2022-08-17T03:35:42.958Z,98087.92
2022-08-17T03:36:50.920Z,98089.86
2022-08-17T03:38:00.647Z,98090.08
2022-08-17T03:39:09.337Z,98089.81
2022-08-17T03:40:18.501Z,98089.73
2022-08-17T03:41:47.130Z,98093.89
2022-08-17T03:42:56.064Z,98095.25
2022-08-17T03:44:04.403Z,98094.17
2022-08-17T03:45:40.311Z,98096.81
2022-08-17T03:47:08.460Z,98101.19
2022-08-17T03:48:34.175Z,98101.46
2022-08-17T03:50:00.848Z,98106.56
2022-08-17T03:51:37.992Z,98111.98
2022-08-17T03:53:04.666Z,98113.94
2022-08-17T03:54:31.789Z,98114.75
2022-08-17T03:56:03.183Z,98117.55
2022-08-17T03:57:32.798Z,98121.62
2022-08-17T03:58:43.542Z,98124.16
2022-08-17T03:59:52.030Z,98127.09
2022-08-17T04:01:01.616Z,98122.49
2022-08-17T04:02:16.296Z,98128.34
2022-08-17T04:03:23.758Z,98127.99
2022-08-17T04:04:33.766Z,98128.92
2022-08-17T04:05:41.336Z,98130.72
2022-08-17T04:06:48.634Z,98132.41
2022-08-17T04:07:55.216Z,98130.41
2022-08-17T04:09:02.469Z,98133.60
2022-08-17T04:10:10.091Z,98132.92
2022-08-17T04:11:17.359Z,98133.23
2022-08-17T04:12:25.010Z,98132.87
2022-08-17T04:13:32.068Z,98140.33
2022-08-17T04:14:53.382Z,98141.20
2022-08-17T04:16:03.703Z,98142.67
2022-08-17T04:17:13.208Z,98148.66
2022-08-17T04:18:21.453Z,98146.80
2022-08-17T04:19:29.186Z,98151.37
2022-08-17T04:20:36.781Z,98157.29
2022-08-17T04:21:45.145Z,98160.77
2022-08-17T04:23:13.545Z,98164.50
2022-08-17T04:24:21.568Z,98166.02
2022-08-17T04:25:29.692Z,98171.77
2022-08-17T04:26:53.972Z,98174.66
2022-08-17T04:28:04.095Z,98175.02
2022-08-17T04:29:16.044Z,98178.13
2022-08-17T04:30:24.462Z,98177.43
2022-08-17T04:31:33.694Z,98178.15
2022-08-17T04:33:06.019Z,98181.09
2022-08-17T04:34:15.790Z,98185.30
2022-08-17T04:35:30.184Z,98188.40
2022-08-17T04:36:40.361Z,98189.08
2022-08-17T04:37:58.450Z,98190.80
2022-08-17T04:39:07.122Z,98192.09
2022-08-17T04:40:47.653Z,98197.66
2022-08-17T04:42:18.807Z,98202.96
2022-08-17T04:43:27.895Z,98203.91
2022-08-17T04:44:37.661Z,98207.84
2022-08-17T04:45:55.632Z,98207.78
2022-08-17T04:47:05.798Z,98207.25
2022-08-17T04:48:13.718Z,98209.95
2022-08-17T04:49:22.174Z,98211.05
2022-08-17T04:50:30.238Z,98214.46
2022-08-17T04:51:45.481Z,98218.27
2022-08-17T04:53:03.968Z,98217.79
2022-08-17T04:54:15.109Z,98219.98
2022-08-17T04:55:23.483Z,98224.95
2022-08-17T04:56:30.643Z,98224.73
2022-08-17T04:57:41.810Z,98226.30
2022-08-17T04:58:54.377Z,98223.11
2022-08-17T05:00:02.816Z,98220.25
2022-08-17T05:01:11.912Z,98218.50
2022-08-17T05:02:20.964Z,98218.39
2022-08-17T05:03:28.436Z,98218.66
2022-08-17T05:04:36.087Z,98218.73
2022-08-17T05:05:51.625Z,98220.33
2022-08-17T05:07:00.611Z,98221.42
2022-08-17T05:08:09.527Z,98226.66
2022-08-17T05:09:19.622Z,98230.72
2022-08-17T05:10:28.462Z,98232.98
2022-08-17T05:11:35.942Z,98234.80
2022-08-17T05:12:44.174Z,98237.50
2022-08-17T05:13:53.213Z,98242.12
2022-08-17T05:15:01.948Z,98239.53
2022-08-17T05:16:10.756Z,98240.97
2022-08-17T05:17:18.990Z,98246.80
2022-08-17T05:18:27.085Z,98244.38
2022-08-17T05:19:34.992Z,98241.73
2022-08-17T05:20:45.457Z,98242.67
2022-08-17T05:21:54.198Z,98241.79
2022-08-17T05:23:05.926Z,98240.90
2022-08-17T05:24:41.251Z,98241.08
2022-08-17T05:25:50.387Z,98238.86
2022-08-17T05:27:06.022Z,98236.66
2022-08-17T05:28:16.020Z,98239.02
2022-08-17T05:29:35.334Z,98241.11
2022-08-17T05:30:44.542Z,98242.59
2022-08-17T05:31:52.565Z,98245.75
2022-08-17T05:33:07.478Z,98244.80
2022-08-17T05:34:15.555Z,98243.04
2022-08-17T05:35:23.775Z,98239.23
2022-08-17T05:36:43.660Z,98240.77
2022-08-17T05:37:52.902Z,98241.20
2022-08-17T05:39:01.553Z,98244.70
2022-08-17T05:40:11.683Z,98247.05
2022-08-17T05:41:20.256Z,98249.02
2022-08-17T05:42:28.388Z,98250.11
2022-08-17T05:43:38.168Z,98253.08
2022-08-17T05:44:45.678Z,98251.58
2022-08-17T05:46:06.329Z,98253.31
2022-08-17T05:47:14.819Z,98255.02
2022-08-17T05:48:36.741Z,98252.33
2022-08-17T05:49:49.325Z,98249.35
2022-08-17T05:51:07.094Z,98251.49
2022-08-17T05:52:36.608Z,98252.74
2022-08-17T05:54:01.032Z,98258.28
2022-08-17T05:55:18.475Z,98262.02
2022-08-17T05:56:48.138Z,98267.05
2022-08-17T05:58:01.511Z,98267.47
2022-08-17T05:59:12.895Z,98271.27
2022-08-17T06:00:30.397Z,98272.49
2022-08-17T06:02:15.066Z,98268.33
2022-08-17T06:03:29.207Z,98269.65
2022-08-17T06:04:47.174Z,98268.13
2022-08-17T06:06:16.884Z,98263.27
2022-08-17T06:07:26.583Z,98267.41
2022-08-17T06:08:53.457Z,98266.77
2022-08-17T06:10:08.624Z,98265.38
2022-08-17T06:11:30.430Z,98270.95
2022-08-17T06:13:12.782Z,98268.77
2022-08-17T06:14:32.475Z,98266.76
2022-08-17T06:15:57.456Z,98264.98
2022-08-17T06:17:11.263Z,98264.38
2022-08-17T06:18:19.250Z,98265.56
2022-08-17T06:19:50.354Z,98265.35
2022-08-17T06:21:06.185Z,98268.07
2022-08-17T06:22:16.623Z,98260.60
2022-08-17T06:23:31.814Z,98264.58
2022-08-17T06:25:27.882Z,98260.77
2022-08-17T06:26:42.746Z,98260.62
2022-08-17T06:27:57.405Z,98261.71
2022-08-17T06:29:26.562Z,98262.40
2022-08-17T06:30:59.294Z,98262.36
2022-08-17T06:32:10.196Z,98265.55
2022-08-17T06:33:26.358Z,98270.00
2022-08-17T06:34:35.278Z,98269.50
2022-08-17T06:36:17.289Z,98270.60
2022-08-17T06:37:43.012Z,98275.59
2022-08-17T06:39:10.510Z,98275.67
2022-08-17T06:40:18.616Z,98284.23
2022-08-17T06:41:54.205Z,98283.39
2022-08-17T06:43:08.426Z,98287.20
2022-08-17T06:44:43.551Z,98289.04
2022-08-17T06:46:01.584Z,98289.89
2022-08-17T06:47:28.931Z,98287.27
2022-08-17T06:48:59.179Z,98287.84
2022-08-17T06:50:10.659Z,98282.39
2022-08-17T06:51:33.190Z,98278.73
2022-08-17T06:53:22.185Z,98277.85
2022-08-17T06:54:57.216Z,98274.09
2022-08-17T06:56:10.313Z,98280.42
2022-08-17T06:57:22.622Z,98280.14
2022-08-17T06:58:33.599Z,98282.27
2022-08-17T07:00:03.190Z,98287.27
2022-08-17T07:01:17.869Z,98287.02
2022-08-17T07:02:53.196Z,98294.16
2022-08-17T07:04:20.175Z,98294.98
2022-08-17T07:05:46.326Z,98296.02
2022-08-17T07:07:39.642Z,98297.01
2022-08-17T07:08:58.425Z,98293.46
2022-08-17T07:10:09.295Z,98289.39
2022-08-17T07:11:23.427Z,98288.11
2022-08-17T07:12:39.324Z,98286.44
2022-08-17T07:14:13.953Z,98284.17
2022-08-17T07:15:30.374Z,98278.11
2022-08-17T07:16:42.704Z,98272.45
2022-08-17T07:17:50.523Z,98268.05
2022-08-17T07:18:58.874Z,98264.99
2022-08-17T07:20:10.682Z,98260.16
2022-08-17T07:21:51.475Z,98259.23
2022-08-17T07:23:02.827Z,98257.84
2022-08-17T07:24:29.670Z,98257.05
2022-08-17T07:25:38.510Z,98253.65
2022-08-17T07:26:51.396Z,98261.06
2022-08-17T07:28:02.366Z,98260.83
2022-08-17T07:29:15.843Z,98263.33
2022-08-17T07:30:28.233Z,98264.74
2022-08-17T07:31:35.272Z,98264.73
2022-08-17T07:33:03.534Z,98261.47
2022-08-17T07:34:15.882Z,98263.48
2022-08-17T07:35:40.841Z,98262.42
2022-08-17T07:36:55.574Z,98261.34
2022-08-17T07:38:24.234Z,98261.34
2022-08-17T07:39:33.586Z,98264.42
2022-08-17T07:40:46.997Z,98267.13
2022-08-17T07:41:58.957Z,98265.30
2022-08-17T07:43:08.641Z,98265.33
2022-08-17T07:44:21.756Z,98268.77
2022-08-17T07:45:47.205Z,98265.13
2022-08-17T07:47:14.524Z,98264.35
2022-08-17T07:48:28.804Z,98267.54
2022-08-17T07:49:41.494Z,98273.59
2022-08-17T07:50:49.600Z,98272.47
2022-08-17T07:52:00.472Z,98276.64
2022-08-17T07:53:28.474Z,98279.59
2022-08-17T07:54:39.712Z,98276.84
2022-08-17T07:55:46.874Z,98276.73
2022-08-17T07:57:21.303Z,98274.02
2022-08-17T07:58:28.342Z,98268.91
2022-08-17T07:59:39.356Z,98261.76
2022-08-17T08:01:11.294Z,98255.52
2022-08-17T08:02:35.796Z,98254.16
2022-08-17T08:03:44.293Z,98255.79
2022-08-17T08:05:01.863Z,98255.71
2022-08-17T08:06:23.553Z,98257.94
2022-08-17T08:07:37.430Z,98257.93
2022-08-17T08:08:44.517Z,98259.91
2022-08-17T08:10:11.382Z,98260.34
2022-08-17T08:11:30.381Z,98255.81
2022-08-17T08:12:47.172Z,98259.39
2022-08-17T08:13:54.183Z,98256.67
2022-08-17T08:15:16.753Z,98259.07
2022-08-17T08:16:30.409Z,98258.79
2022-08-17T08:17:47.544Z,98253.73
2022-08-17T08:18:59.721Z,98254.24
2022-08-17T08:20:37.874Z,98257.01
2022-08-17T08:21:52.184Z,98259.04
2022-08-17T08:23:21.348Z,98257.77
2022-08-17T08:24:38.324Z,98259.70
2022-08-17T08:26:18.586Z,98266.45
2022-08-17T08:27:47.448Z,98263.23
2022-08-17T08:29:24.813Z,98261.36
2022-08-17T08:30:33.669Z,98263.90
2022-08-17T08:32:18.783Z,98263.10
2022-08-17T08:33:39.505Z,98265.51
2022-08-17T08:35:11.701Z,98267.41
2022-08-17T08:36:57.108Z,98269.98
2022-08-17T08:38:42.134Z,98272.34
2022-08-17T08:40:12.231Z,98270.84
2022-08-17T08:41:37.390Z,98271.74
2022-08-17T08:42:54.873Z,98272.55
2022-08-17T08:44:11.292Z,98268.14
2022-08-17T08:45:23.134Z,98267.02
2022-08-17T08:47:01.510Z,98266.33
2022-08-17T08:48:56.550Z,98268.39
2022-08-17T08:50:37.745Z,98271.63
2022-08-17T08:51:49.145Z,98274.09
2022-08-17T08:53:24.924Z,98273.44
2022-08-17T08:54:41.386Z,98274.60
2022-08-17T08:56:02.336Z,98273.75
2022-08-17T08:57:29.007Z,98276.66
2022-08-17T08:59:03.224Z,98273.24
2022-08-17T09:00:18.451Z,98274.84
2022-08-17T09:01:47.770Z,98277.73
2022-08-17T09:03:13.108Z,98279.73
2022-08-17T09:05:13.003Z,98279.16
2022-08-17T09:06:37.431Z,98282.23
2022-08-17T09:07:59.788Z,98287.81
2022-08-17T09:09:28.456Z,98288.42
2022-08-17T09:11:04.198Z,98290.03
2022-08-17T09:12:34.968Z,98288.32
2022-08-17T09:13:46.436Z,98287.58
2022-08-17T09:15:24.398Z,98284.20
2022-08-17T09:16:44.747Z,98282.70
2022-08-17T09:19:01.517Z,98283.02
2022-08-17T09:20:14.477Z,98285.77
2022-08-17T09:21:48.030Z,98286.20
2022-08-17T09:23:11.099Z,98286.85
2022-08-17T09:24:35.121Z,98286.71
2022-08-17T09:25:53.817Z,98285.19
2022-08-17T09:27:15.127Z,98287.77
2022-08-17T09:28:25.489Z,98286.04
2022-08-17T09:29:36.249Z,98286.19
2022-08-17T09:30:48.138Z,98289.88
2022-08-17T09:32:06.649Z,98290.30
2022-08-17T09:33:14.930Z,98287.91
2022-08-17T09:34:48.438Z,98287.65
2022-08-17T09:36:34.868Z,98288.58
2022-08-17T09:38:14.129Z,98285.06
2022-08-17T09:39:32.896Z,98288.42
2022-08-17T09:41:06.160Z,98287.84
2022-08-17T09:42:16.380Z,98292.15
2022-08-17T09:43:46.600Z,98292.09
2022-08-17T09:45:05.760Z,98292.51
2022-08-17T09:46:20.369Z,98292.75
2022-08-17T09:47:27.819Z,98297.64
2022-08-17T09:48:49.490Z,98301.37
2022-08-17T09:50:12.889Z,98298.81
2022-08-17T09:51:31.700Z,98299.56
2022-08-17T09:52:38.709Z,98297.92
2022-08-17T09:53:46.028Z,98298.27
2022-08-17T09:54:54.627Z,98299.12
2022-08-17T09:56:25.499Z,98298.84
2022-08-17T09:58:13.209Z,98299.61
2022-08-17T09:59:38.159Z,98294.20
2022-08-17T10:00:50.544Z,98296.08
2022-08-17T10:02:20.070Z,98292.20
2022-08-17T10:03:57.425Z,98290.91
2022-08-17T10:05:23.189Z,98292.73
2022-08-17T10:06:33.061Z,98295.39
2022-08-17T10:07:48.204Z,98293.92
2022-08-17T10:09:09.901Z,98294.16
2022-08-17T10:10:38.696Z,98291.89
2022-08-17T10:12:33.528Z,98291.16
2022-08-17T10:13:52.763Z,98295.50
2022-08-17T10:15:09.426Z,98291.66
2022-08-17T10:16:34.983Z,98291.67
2022-08-17T10:18:08.981Z,98296.90
2022-08-17T10:19:25.973Z,98297.64
2022-08-17T10:21:17.002Z,98297.02
2022-08-17T10:23:07.377Z,98297.04
2022-08-17T10:25:20.879Z,98295.73
2022-08-17T10:26:26.163Z,98295.91
2022-08-17T10:27:45.199Z,98292.58
2022-08-17T10:29:08.352Z,98296.52
2022-08-17T10:30:15.695Z,98295.84
2022-08-17T10:31:34.732Z,98297.27
2022-08-17T10:32:51.783Z,98296.16
2022-08-17T10:34:27.132Z,98298.71
2022-08-17T10:35:35.239Z,98298.06
2022-08-17T10:36:51.232Z,98299.37
2022-08-17T10:38:35.181Z,98301.35
2022-08-17T10:40:24.837Z,98299.67
2022-08-17T10:41:44.997Z,98297.75
2022-08-17T10:43:30.611Z,98293.53
2022-08-17T10:44:57.851Z,98295.14
2022-08-17T10:46:34.830Z,98293.10
2022-08-17T10:48:05.043Z,98292.68
2022-08-17T10:49:24.099Z,98292.57
2022-08-17T10:50:57.450Z,98292.73
2022-08-17T10:52:25.216Z,98292.70
2022-08-17T10:53:35.370Z,98292.89
2022-08-17T10:54:50.073Z,98287.41
2022-08-17T10:56:15.862Z,98285.66
2022-08-17T10:57:29.004Z,98287.11
2022-08-17T10:58:56.066Z,98284.23
2022-08-17T11:00:27.542Z,98286.25
2022-08-17T11:01:41.432Z,98288.80
2022-08-17T11:02:57.518Z,98289.85
2022-08-17T11:04:20.083Z,98289.98
2022-08-17T11:05:34.713Z,98292.30
2022-08-17T11:07:03.422Z,98295.44
2022-08-17T11:08:11.788Z,98296.66
2022-08-17T11:09:28.965Z,98294.83
2022-08-17T11:10:51.839Z,98296.39
2022-08-17T11:12:17.681Z,98301.54
2022-08-17T11:13:32.543Z,98301.73
2022-08-17T11:15:03.483Z,98301.46
2022-08-17T11:16:36.603Z,98299.66
2022-08-17T11:18:20.959Z,98298.63
2022-08-17T11:19:50.028Z,98297.13
2022-08-17T11:21:01.493Z,98299.89
2022-08-17T11:22:14.133Z,98300.33
2022-08-17T11:23:56.230Z,98300.00
2022-08-17T11:25:19.193Z,98301.31
2022-08-17T11:26:28.636Z,98303.48
2022-08-17T11:27:36.260Z,98304.29
2022-08-17T11:28:52.567Z,98304.48
2022-08-17T11:30:02.909Z,98303.38
2022-08-17T11:31:12.063Z,98300.75
2022-08-17T11:32:47.739Z,98298.98
2022-08-17T11:33:59.060Z,98298.68
2022-08-17T11:35:38.093Z,98298.30
2022-08-17T11:37:13.492Z,98301.49
2022-08-17T11:38:28.420Z,98301.59
2022-08-17T11:39:57.132Z,98304.18
2022-08-17T11:41:29.104Z,98303.03
2022-08-17T11:42:48.632Z,98303.60
2022-08-17T11:44:08.233Z,98302.09
2022-08-17T11:45:32.108Z,98302.23
2022-08-17T11:47:18.792Z,98306.65
2022-08-17T11:48:56.591Z,98307.55
2022-08-17T11:50:48.664Z,98309.05
2022-08-17T11:51:58.002Z,98309.28
2022-08-17T11:53:06.843Z,98308.66
2022-08-17T11:54:37.352Z,98306.09
2022-08-17T11:55:45.056Z,98303.60
2022-08-17T11:56:52.911Z,98302.23
2022-08-17T11:58:02.951Z,98296.51
2022-08-17T11:59:40.672Z,98297.48
2022-08-17T12:00:48.002Z,98296.69
2022-08-17T12:01:56.911Z,98295.23
2022-08-17T12:03:33.500Z,98293.27
2022-08-17T12:04:40.788Z,98295.32
2022-08-17T12:05:48.632Z,98292.13
2022-08-17T12:07:28.173Z,98290.23
2022-08-17T12:08:35.643Z,98290.89
2022-08-17T12:09:44.742Z,98289.68
2022-08-17T12:12:11.350Z,98291.92
2022-08-17T12:12:50.778Z,98295.94
2022-08-17T12:13:59.676Z,98295.81
2022-08-17T12:15:10.937Z,98298.24
2022-08-17T12:16:20.239Z,98299.34
2022-08-17T12:17:39.556Z,98300.40
2022-08-17T12:18:59.861Z,98303.73
2022-08-17T12:20:14.640Z,98303.59
2022-08-17T12:21:46.602Z,98302.62
2022-08-17T12:23:02.756Z,98305.40
2022-08-17T12:24:19.552Z,98305.58
2022-08-17T12:25:52.585Z,98306.93
2022-08-17T12:27:02.174Z,98310.80
2022-08-17T12:28:33.351Z,98314.20
2022-08-17T12:29:43.741Z,98315.88
2022-08-17T12:30:52.422Z,98318.52
2022-08-17T12:32:00.686Z,98317.34
2022-08-17T12:33:25.750Z,98317.75
2022-08-17T12:34:41.960Z,98317.61
2022-08-17T12:35:49.833Z,98318.29
2022-08-17T12:37:03.502Z,98315.23
2022-08-17T12:38:30.386Z,98314.88
2022-08-17T12:39:41.851Z,98317.23
2022-08-17T12:40:58.208Z,98317.59
2022-08-17T12:42:06.784Z,98317.21
2022-08-17T12:43:28.683Z,98318.73
2022-08-17T12:44:46.119Z,98319.54
2022-08-17T12:46:13.455Z,98323.15
2022-08-17T12:47:23.838Z,98324.88
2022-08-17T12:48:33.309Z,98324.24
2022-08-17T12:49:43.917Z,98327.34
2022-08-17T12:50:51.875Z,98327.83
2022-08-17T12:52:24.625Z,98327.41
2022-08-17T12:53:34.093Z,98328.92
2022-08-17T12:55:04.345Z,98331.48
2022-08-17T12:56:13.744Z,98335.35
2022-08-17T12:57:41.616Z,98336.44
2022-08-17T12:58:56.972Z,98339.45
2022-08-17T13:00:47.518Z,98343.80
2022-08-17T13:01:55.532Z,98343.13
2022-08-17T13:03:18.625Z,98342.31
2022-08-17T13:04:29.634Z,98342.50
2022-08-17T13:05:39.832Z,98344.81
2022-08-17T13:06:52.665Z,98344.90
2022-08-17T13:08:29.905Z,98346.77
2022-08-17T13:09:40.269Z,98345.69
2022-08-17T13:11:06.286Z,98345.05
2022-08-17T13:12:14.689Z,98347.23
2022-08-17T13:13:26.658Z,98347.08
2022-08-17T13:14:35.023Z,98344.46
2022-08-17T13:15:54.047Z,98348.73
2022-08-17T13:17:02.788Z,98348.23
2022-08-17T13:18:30.016Z,98347.73
2022-08-17T13:19:41.529Z,98346.32
2022-08-17T13:20:55.270Z,98347.38
2022-08-17T13:22:04.687Z,98349.63
2022-08-17T13:23:15.199Z,98348.79
2022-08-17T13:24:26.547Z,98347.75
2022-08-17T13:25:34.046Z,98348.95
2022-08-17T13:26:44.955Z,98348.98
2022-08-17T13:27:54.816Z,98349.31
2022-08-17T13:29:03.503Z,98346.72
2022-08-17T13:30:13.735Z,98347.65
2022-08-17T13:31:31.636Z,98349.39
2022-08-17T13:32:44.029Z,98351.81
2022-08-17T13:33:53.110Z,98350.48
2022-08-17T13:35:16.269Z,98350.06
2022-08-17T13:36:36.865Z,98350.44
2022-08-17T13:38:00.635Z,98353.38
2022-08-17T13:39:10.754Z,98356.33
2022-08-17T13:40:21.872Z,98354.30
2022-08-17T13:41:38.090Z,98358.38
2022-08-17T13:42:51.935Z,98359.45
2022-08-17T13:44:02.234Z,98359.35
2022-08-17T13:45:36.578Z,98365.93
2022-08-17T13:46:56.983Z,98365.21
2022-08-17T13:48:30.290Z,98363.22
2022-08-17T13:49:48.325Z,98363.27
2022-08-17T13:50:58.075Z,98362.20
2022-08-17T13:52:07.072Z,98362.15
2022-08-17T13:53:31.189Z,98362.03
2022-08-17T13:54:40.568Z,98360.19
2022-08-17T13:55:53.586Z,98360.17
2022-08-17T13:57:22.852Z,98362.38
2022-08-17T13:58:41.264Z,98365.79
2022-08-17T13:59:54.867Z,98368.21
2022-08-17T14:01:37.072Z,98373.11
2022-08-17T14:02:45.257Z,98371.05
2022-08-17T14:03:53.584Z,98373.05
2022-08-17T14:05:06.199Z,98375.14
2022-08-17T14:06:52.477Z,98375.48
2022-08-17T14:07:45.595Z,98376.52
2022-08-17T14:08:54.043Z,98375.94
2022-08-17T14:10:05.382Z,98376.71
2022-08-17T14:11:14.217Z,98375.30
2022-08-17T14:12:23.374Z,98374.14
2022-08-17T14:13:31.515Z,98373.16
2022-08-17T14:14:44.470Z,98372.67
2022-08-17T14:15:54.738Z,98370.52
2022-08-17T14:17:04.806Z,98371.66
2022-08-17T14:18:12.471Z,98376.27
2022-08-17T14:19:21.015Z,98373.55
2022-08-17T14:20:29.492Z,98372.73
2022-08-17T14:21:37.525Z,98374.95
2022-08-17T14:22:47.095Z,98372.73
2022-08-17T14:23:55.218Z,98370.16
2022-08-17T14:25:03.491Z,98368.61
2022-08-17T14:26:11.998Z,98366.52
2022-08-17T14:27:21.175Z,98366.27
2022-08-17T14:28:29.205Z,98367.09
2022-08-17T14:29:37.505Z,98365.40
2022-08-17T14:30:45.437Z,98365.77
2022-08-17T14:31:54.612Z,98371.07
2022-08-17T14:33:03.469Z,98371.55
2022-08-17T14:34:15.466Z,98372.15
2022-08-17T14:35:25.736Z,98370.92
2022-08-17T14:36:33.857Z,98368.56
2022-08-17T14:37:41.356Z,98367.50
2022-08-17T14:38:49.430Z,98371.48
2022-08-17T14:40:01.743Z,98370.25
2022-08-17T14:41:10.081Z,98367.84
2022-08-17T14:42:19.014Z,98368.60
2022-08-17T14:43:27.266Z,98370.86
2022-08-17T14:44:35.564Z,98371.77
2022-08-17T14:45:43.996Z,98371.29
2022-08-17T14:46:52.553Z,98370.16
2022-08-17T14:48:00.939Z,98373.71
2022-08-17T14:49:10.090Z,98372.02
2022-08-17T14:50:23.538Z,98374.34
2022-08-17T14:51:31.836Z,98370.90
2022-08-17T14:52:42.276Z,98372.39
2022-08-17T14:53:50.750Z,98372.48
2022-08-17T14:54:58.367Z,98369.89
2022-08-17T14:56:07.030Z,98374.30
2022-08-17T14:57:33.009Z,98375.75
2022-08-17T14:58:44.936Z,98377.70
2022-08-17T14:59:57.694Z,98378.02
2022-08-17T15:01:08.896Z,98378.27